Time;durP1;ratioP1;P1;durP2;ratioP2;P2;SDS_P1;SDS_P2;PMS_P1;PMS_P2;Temp;Humidity;BMP_temperature;BMP_pressure;BME280_temperature;BME280_humidity;BME280_pressure;Samples;Min_cycle;Max_cycle;Signal;HPM_P1;HPM_P2
2021/04/16 00:01:49;;;;;;;17.07;12.20;;;6.00;99.90;;;;;;4924005;29;20245;-83
2021/04/16 00:04:19;;;;;;;16.20;12.30;;;6.10;99.90;;;;;;4923326;28;20210;-82
2021/04/16 00:06:47;;;;;;;19.70;13.33;;;6.10;99.90;;;;;;4919463;29;20213;-83
2021/04/16 00:09:15;;;;;;;14.87;12.73;;;6.00;99.90;;;;;;4922840;29;20210;-82
2021/04/16 00:11:43;;;;;;;16.00;12.37;;;6.10;99.90;;;;;;4920205;29;20203;-83
2021/04/16 00:14:12;;;;;;;17.47;12.10;;;6.10;99.90;;;;;;4922950;28;20210;-83
2021/04/16 00:16:39;;;;;;;16.80;12.87;;;6.10;99.90;;;;;;4919161;29;20206;-83
2021/04/16 00:19:07;;;;;;;15.07;12.37;;;6.10;99.90;;;;;;4920323;29;20237;-82
2021/04/16 00:21:36;;;;;;;18.17;13.30;;;6.00;99.90;;;;;;4917710;29;20249;-82
2021/04/16 00:24:05;;;;;;;20.80;13.63;;;6.00;99.90;;;;;;4916406;29;20937;-84
2021/04/16 00:26:35;;;;;;;18.20;13.20;;;6.00;99.90;;;;;;4919016;29;20810;-84
2021/04/16 00:29:03;;;;;;;18.43;13.93;;;6.00;99.90;;;;;;4917296;29;20221;-83
2021/04/16 00:31:33;;;;;;;19.37;14.40;;;6.10;99.90;;;;;;4918789;28;20675;-81
2021/04/16 00:34:01;;;;;;;17.53;13.50;;;6.10;99.90;;;;;;4915269;28;20727;-83
2021/04/16 00:36:30;;;;;;;18.20;14.17;;;6.10;99.90;;;;;;4921787;28;20621;-83
2021/04/16 00:38:58;;;;;;;17.53;13.20;;;6.10;99.90;;;;;;4936641;28;20266;-82
2021/04/16 00:41:29;;;;;;;15.10;11.63;;;6.10;99.90;;;;;;4944243;28;20291;-83
2021/04/16 00:43:57;;;;;;;19.70;13.63;;;6.20;99.90;;;;;;4940704;28;20202;-82
2021/04/16 00:46:32;;;;;;;17.23;12.80;;;6.30;99.90;;;;;;4945706;28;20823;-83
2021/04/16 00:49:04;;;;;;;16.57;12.80;;;6.20;99.90;;;;;;4938010;28;20483;-82
2021/04/16 00:51:35;;;;;;;19.77;13.53;;;6.20;99.90;;;;;;4938704;29;20375;-83
2021/04/16 00:54:10;;;;;;;18.70;14.40;;;6.20;99.90;;;;;;4941410;28;20190;-84
2021/04/16 00:56:38;;;;;;;20.80;14.47;;;6.10;99.90;;;;;;4945538;28;20424;-83
2021/04/16 00:59:09;;;;;;;18.43;13.67;;;6.10;99.90;;;;;;4946067;28;20534;-83
2021/04/16 01:01:37;;;;;;;23.03;13.60;;;6.10;99.90;;;;;;4944101;28;20672;-83
2021/04/16 01:04:05;;;;;;;18.63;14.00;;;6.10;99.90;;;;;;4933696;28;20226;-82
2021/04/16 01:06:33;;;;;;;14.67;12.67;;;6.00;99.90;;;;;;4935326;29;20349;-80
2021/04/16 01:09:02;;;;;;;17.07;13.70;;;6.10;99.90;;;;;;4927108;29;20206;-81
2021/04/16 01:11:30;;;;;;;20.00;13.60;;;6.10;99.90;;;;;;4926435;29;20226;-81
2021/04/16 01:13:58;;;;;;;15.13;9.80;;;6.10;99.90;;;;;;4922486;29;20217;-82
2021/04/16 01:16:30;;;;;;;18.37;12.30;;;6.10;99.90;;;;;;4921149;28;20218;-83
2021/04/16 01:19:01;;;;;;;17.87;11.57;;;6.10;99.90;;;;;;4925268;28;20221;-80
2021/04/16 01:21:35;;;;;;;16.83;12.53;;;6.10;99.90;;;;;;4941468;28;20285;-85
2021/04/16 01:24:22;;;;;;;18.07;12.07;;;6.10;99.90;;;;;;4939297;28;20210;-82
2021/04/16 01:26:50;;;;;;;19.03;13.13;;;6.00;99.90;;;;;;4943062;28;20181;-83
2021/04/16 01:29:18;;;;;;;17.13;13.27;;;6.00;99.90;;;;;;4930137;29;20874;-81
2021/04/16 01:31:49;;;;;;;18.03;14.13;;;6.00;99.90;;;;;;4931277;29;20210;-82
2021/04/16 01:34:19;;;;;;;18.27;12.23;;;6.10;99.90;;;;;;4928749;28;20198;-82
2021/04/16 01:36:47;;;;;;;16.23;11.70;;;6.10;99.90;;;;;;4942129;28;20277;-83
2021/04/16 01:39:15;;;;;;;16.27;12.67;;;6.10;99.90;;;;;;4945000;28;20189;-82
2021/04/16 01:41:44;;;;;;;18.53;12.33;;;6.10;99.90;;;;;;4932613;29;20293;-83
2021/04/16 01:44:14;;;;;;;15.47;11.87;;;6.10;99.90;;;;;;4944431;28;20186;-82
2021/04/16 01:46:54;;;;;;;16.57;12.10;;;6.00;99.90;;;;;;4941962;28;20214;-81
2021/04/16 01:49:23;;;;;;;17.93;11.77;;;6.00;99.90;;;;;;4932870;29;20218;-81
2021/04/16 01:51:55;;;;;;;9.90;7.37;;;5.90;99.90;;;;;;4942676;29;20187;-83
2021/04/16 01:54:25;;;;;;;15.63;12.20;;;6.00;99.90;;;;;;4939981;28;20211;-81
2021/04/16 01:56:56;;;;;;;16.30;12.33;;;6.00;99.90;;;;;;4938417;28;20205;-82
2021/04/16 01:59:26;;;;;;;13.30;11.27;;;6.00;99.90;;;;;;4931212;29;20218;-82
2021/04/16 02:01:54;;;;;;;14.50;10.40;;;6.10;99.90;;;;;;4935841;29;20234;-83
2021/04/16 02:04:22;;;;;;;15.47;12.03;;;6.10;99.90;;;;;;4933998;28;21045;-81
2021/04/16 02:06:51;;;;;;;14.43;10.90;;;6.10;99.90;;;;;;4935990;28;21236;-84
2021/04/16 02:09:21;;;;;;;16.37;11.53;;;6.10;99.90;;;;;;4936426;29;20326;-82
2021/04/16 02:11:49;;;;;;;15.83;11.97;;;6.10;99.90;;;;;;4934864;29;20275;-81
2021/04/16 02:14:21;;;;;;;14.43;10.90;;;6.10;99.90;;;;;;4939318;28;20433;-82
2021/04/16 02:16:51;;;;;;;13.80;11.47;;;6.10;99.90;;;;;;4935083;28;20199;-82
2021/04/16 02:19:20;;;;;;;14.97;11.80;;;6.00;99.90;;;;;;4939003;28;20199;-83
2021/04/16 02:21:48;;;;;;;15.80;11.80;;;6.00;99.90;;;;;;4938935;28;20265;-84
2021/04/16 02:24:17;;;;;;;13.20;10.77;;;6.00;99.90;;;;;;4938861;28;20445;-84
2021/04/16 02:26:45;;;;;;;14.57;11.50;;;6.00;99.90;;;;;;4934651;28;20274;-84
2021/04/16 02:29:16;;;;;;;16.13;11.13;;;6.00;99.90;;;;;;4926329;29;20527;-83
2021/04/16 02:31:45;;;;;;;15.80;11.77;;;6.10;99.90;;;;;;4934568;29;20206;-81
2021/04/16 02:34:15;;;;;;;15.10;12.27;;;6.10;99.90;;;;;;4936290;28;20406;-82
2021/04/16 02:36:42;;;;;;;17.00;13.10;;;6.10;99.90;;;;;;4930411;29;20213;-85
2021/04/16 02:39:10;;;;;;;17.67;13.20;;;6.10;99.90;;;;;;4932495;29;20306;-83
2021/04/16 02:41:38;;;;;;;19.40;13.43;;;6.10;99.90;;;;;;4931012;29;20246;-82
2021/04/16 02:44:06;;;;;;;19.23;12.13;;;6.00;99.90;;;;;;4933688;29;20194;-82
2021/04/16 02:46:34;;;;;;;16.17;11.83;;;6.00;99.90;;;;;;4942259;29;20834;-83
2021/04/16 02:49:04;;;;;;;14.10;10.33;;;6.00;99.90;;;;;;4934216;29;20224;-83
2021/04/16 02:51:32;;;;;;;13.63;11.23;;;6.00;99.90;;;;;;4937837;29;20206;-83
2021/04/16 02:54:00;;;;;;;13.80;10.50;;;6.00;99.90;;;;;;4933727;29;20194;-81
2021/04/16 02:56:28;;;;;;;16.23;11.27;;;6.10;99.90;;;;;;4940587;28;20476;-84
2021/04/16 02:58:57;;;;;;;13.13;10.70;;;6.00;99.90;;;;;;4941600;28;20226;-84
2021/04/16 03:01:33;;;;;;;12.23;9.80;;;5.90;99.90;;;;;;4940436;28;20297;-83
2021/04/16 03:04:01;;;;;;;12.17;8.70;;;6.00;99.90;;;;;;4940964;28;20187;-83
2021/04/16 03:06:30;;;;;;;12.87;10.10;;;6.00;99.90;;;;;;4937306;28;20194;-83
2021/04/16 03:09:01;;;;;;;11.70;9.00;;;6.00;99.90;;;;;;4941345;28;20212;-84
2021/04/16 03:11:29;;;;;;;10.67;7.50;;;6.00;99.90;;;;;;4943831;28;20214;-83
2021/04/16 03:13:57;;;;;;;14.73;9.63;;;6.00;99.90;;;;;;4941873;28;20182;-83
2021/04/16 03:16:27;;;;;;;10.07;7.93;;;6.00;99.90;;;;;;4940678;28;20204;-83
2021/04/16 03:18:57;;;;;;;11.00;9.00;;;6.00;99.90;;;;;;4937308;28;20217;-81
2021/04/16 03:21:25;;;;;;;10.40;8.63;;;6.20;99.90;;;;;;4936383;29;20301;-83
2021/04/16 03:23:57;;;;;;;12.23;9.37;;;6.00;99.90;;;;;;4939524;28;20207;-83
2021/04/16 03:26:25;;;;;;;13.97;8.90;;;6.00;99.90;;;;;;4934989;29;20219;-81
2021/04/16 03:28:53;;;;;;;12.83;8.90;;;5.90;99.90;;;;;;4935998;29;20186;-82
2021/04/16 03:31:21;;;;;;;13.83;9.57;;;5.90;99.90;;;;;;4929285;29;20794;-83
2021/04/16 03:33:49;;;;;;;13.27;9.03;;;5.90;99.90;;;;;;4935441;28;20218;-83
2021/04/16 03:36:18;;;;;;;11.00;8.47;;;6.00;99.90;;;;;;4929182;29;20199;-83
2021/04/16 03:38:48;;;;;;;10.90;9.30;;;5.90;99.90;;;;;;4941686;28;20201;-83
2021/04/16 03:41:17;;;;;;;10.20;8.87;;;5.90;99.90;;;;;;4939406;29;20212;-82
2021/04/16 03:43:46;;;;;;;11.30;8.17;;;5.90;99.90;;;;;;4943291;28;20227;-83
2021/04/16 03:46:13;;;;;;;10.23;8.63;;;5.90;99.90;;;;;;4946443;28;20388;-83
2021/04/16 03:48:41;;;;;;;12.00;8.30;;;5.90;99.90;;;;;;4943728;28;20382;-83
2021/04/16 03:51:10;;;;;;;10.53;8.73;;;5.90;99.90;;;;;;4932990;29;20574;-83
2021/04/16 03:53:39;;;;;;;12.90;9.13;;;5.90;99.90;;;;;;4935737;29;20230;-82
2021/04/16 03:56:08;;;;;;;12.87;8.77;;;5.90;99.90;;;;;;4934571;29;20368;-83
2021/04/16 03:58:36;;;;;;;11.53;8.87;;;5.90;99.90;;;;;;4939593;29;20214;-83
2021/04/16 04:01:05;;;;;;;14.40;9.17;;;5.80;99.90;;;;;;4939839;28;20301;-82
2021/04/16 04:03:33;;;;;;;9.83;8.20;;;5.90;99.90;;;;;;4948101;28;20269;-82
2021/04/16 04:06:02;;;;;;;13.07;8.67;;;5.90;99.90;;;;;;4938745;28;20218;-82
2021/04/16 04:08:30;;;;;;;11.17;8.70;;;5.90;99.90;;;;;;4932914;28;20213;-82
2021/04/16 04:10:57;;;;;;;11.33;7.20;;;5.90;99.90;;;;;;4941626;28;20285;-82
2021/04/16 04:13:25;;;;;;;9.50;8.20;;;5.90;99.90;;;;;;4926635;28;20568;-84
2021/04/16 04:15:54;;;;;;;10.83;8.53;;;5.80;99.90;;;;;;4925349;29;20224;-83
2021/04/16 04:18:29;;;;;;;13.10;9.57;;;5.90;99.90;;;;;;4927885;29;20194;-82
2021/04/16 04:21:04;;;;;;;12.30;9.13;;;5.90;99.90;;;;;;4942882;28;20521;-83
2021/04/16 04:23:32;;;;;;;12.00;9.20;;;5.90;99.90;;;;;;4946209;28;20233;-82
2021/04/16 04:26:00;;;;;;;12.03;9.23;;;5.90;99.90;;;;;;4938734;28;20300;-83
2021/04/16 04:28:28;;;;;;;12.20;8.50;;;5.80;99.90;;;;;;4944730;28;20215;-80
2021/04/16 04:33:40;;;;;;;10.30;8.70;;;5.80;99.90;;;;;;4943262;28;20206;-84
2021/04/16 04:36:08;;;;;;;11.47;9.53;;;5.80;99.90;;;;;;4945180;28;20261;-83
2021/04/16 04:38:36;;;;;;;12.83;9.60;;;5.80;99.90;;;;;;4939497;28;20442;-83
2021/04/16 04:41:03;;;;;;;9.73;7.70;;;5.70;99.90;;;;;;4939002;29;20198;-83
2021/04/16 04:43:31;;;;;;;12.00;9.03;;;5.80;99.90;;;;;;4937494;28;20775;-83
2021/04/16 04:46:01;;;;;;;12.70;9.50;;;5.80;99.90;;;;;;4941579;28;20191;-81
2021/04/16 04:48:29;;;;;;;11.33;9.50;;;5.80;99.90;;;;;;4935766;29;20217;-83
2021/04/16 04:50:56;;;;;;;15.00;9.70;;;5.80;99.90;;;;;;4926910;28;20218;-82
2021/04/16 04:53:24;;;;;;;13.60;9.87;;;5.80;99.90;;;;;;4933158;29;20194;-83
2021/04/16 04:55:52;;;;;;;12.53;10.13;;;5.80;99.90;;;;;;4940277;28;20217;-82
2021/04/16 04:58:19;;;;;;;12.53;9.97;;;5.80;99.90;;;;;;4937354;28;20190;-84
2021/04/16 05:00:47;;;;;;;13.73;9.87;;;5.80;99.90;;;;;;4944055;28;20206;-83
2021/04/16 05:03:16;;;;;;;13.00;9.83;;;5.60;99.90;;;;;;4937955;28;20281;-84
2021/04/16 05:05:43;;;;;;;14.40;10.00;;;5.80;99.90;;;;;;4943962;28;20259;-83
2021/04/16 05:08:11;;;;;;;14.00;9.80;;;6.00;99.90;;;;;;4936749;28;20198;-83
2021/04/16 05:10:38;;;;;;;14.70;9.50;;;5.90;99.90;;;;;;4941139;29;20218;-84
2021/04/16 05:13:07;;;;;;;10.57;9.43;;;5.80;99.90;;;;;;4920004;29;20210;-82
2021/04/16 05:15:42;;;;;;;12.97;9.53;;;5.80;99.90;;;;;;4912025;28;20688;-83
2021/04/16 05:18:11;;;;;;;13.10;10.00;;;5.70;99.90;;;;;;4919280;29;20220;-85
2021/04/16 05:20:54;;;;;;;13.57;9.77;;;5.80;99.90;;;;;;4915913;28;20844;-84
2021/04/16 05:23:24;;;;;;;12.00;10.60;;;5.80;99.90;;;;;;4923277;29;20278;-84
2021/04/16 05:26:17;;;;;;;13.93;9.93;;;5.80;99.90;;;;;;4931439;29;20207;-84
2021/04/16 05:28:50;;;;;;;16.10;10.30;;;5.80;99.90;;;;;;4910902;29;20229;-82
2021/04/16 05:31:21;;;;;;;12.20;10.53;;;5.80;99.90;;;;;;4917527;29;20198;-85
2021/04/16 05:33:49;;;;;;;11.80;9.80;;;5.80;99.90;;;;;;4928689;29;20303;-83
2021/04/16 05:36:22;;;;;;;15.33;10.27;;;5.80;99.90;;;;;;4921444;29;20205;-82
2021/04/16 05:38:53;;;;;;;13.47;9.47;;;5.80;99.90;;;;;;4914847;28;21583;-83
2021/04/16 05:41:21;;;;;;;14.23;10.40;;;5.80;99.90;;;;;;4913593;28;20214;-83
2021/04/16 05:44:00;;;;;;;13.40;10.70;;;5.80;99.90;;;;;;4918175;29;20530;-82
2021/04/16 05:46:31;;;;;;;14.03;10.60;;;5.80;99.90;;;;;;4918358;29;20522;-83
2021/04/16 05:49:05;;;;;;;16.23;10.73;;;5.80;99.90;;;;;;4926756;28;20481;-84
2021/04/16 05:51:35;;;;;;;13.10;9.67;;;5.80;99.90;;;;;;4911338;29;20225;-83
2021/04/16 05:54:03;;;;;;;13.37;9.63;;;5.90;99.90;;;;;;4910250;29;20214;-81
2021/04/16 05:56:34;;;;;;;14.57;10.60;;;5.90;99.90;;;;;;4907011;28;20217;-83
2021/04/16 05:59:21;;;;;;;15.17;10.13;;;5.90;99.90;;;;;;4905909;29;20306;-82
2021/04/16 06:01:55;;;;;;;13.23;9.97;;;5.90;99.90;;;;;;4910956;29;20214;-83
2021/04/16 06:04:29;;;;;;;14.20;9.90;;;5.90;99.90;;;;;;4908830;28;20599;-85
2021/04/16 06:07:15;;;;;;;16.87;9.97;;;6.00;99.90;;;;;;4902320;28;20211;-83
2021/04/16 06:09:43;;;;;;;10.47;9.20;;;6.00;99.90;;;;;;4907406;29;20210;-83
2021/04/16 06:12:11;;;;;;;13.43;9.33;;;6.00;99.90;;;;;;4908619;28;20225;-82
2021/04/16 06:14:42;;;;;;;14.77;10.30;;;5.90;99.90;;;;;;4905746;29;20207;-82
2021/04/16 06:17:38;;;;;;;14.63;9.20;;;6.00;99.90;;;;;;4910666;29;20994;-84
2021/04/16 06:20:08;;;;;;;16.97;9.80;;;6.00;99.90;;;;;;4916047;28;20321;-83
2021/04/16 06:22:39;;;;;;;13.70;9.70;;;6.00;99.90;;;;;;4908741;29;20225;-84
2021/04/16 06:25:09;;;;;;;13.23;9.77;;;6.00;99.90;;;;;;4908170;29;20633;-83
2021/04/16 06:27:37;;;;;;;11.60;8.77;;;6.00;99.90;;;;;;4909687;28;20201;-83
2021/04/16 06:30:07;;;;;;;12.20;8.73;;;6.00;99.90;;;;;;4894868;29;20217;-83
2021/04/16 06:32:35;;;;;;;10.93;8.17;;;6.00;99.90;;;;;;4903688;28;20210;-83
2021/04/16 06:35:04;;;;;;;11.37;8.63;;;6.00;99.90;;;;;;4913274;29;20206;-83
2021/04/16 06:37:32;;;;;;;13.57;8.90;;;6.00;99.90;;;;;;4921032;29;20778;-82
2021/04/16 06:40:01;;;;;;;12.87;8.57;;;6.00;99.90;;;;;;4930282;28;20211;-84
2021/04/16 06:42:30;;;;;;;11.00;9.03;;;6.00;99.90;;;;;;4938018;28;20253;-82
2021/04/16 06:45:04;;;;;;;12.77;9.97;;;6.10;99.90;;;;;;4910327;29;20216;-83
2021/04/16 06:47:37;;;;;;;15.60;10.87;;;6.10;99.90;;;;;;4914573;29;20222;-81
2021/04/16 06:50:07;;;;;;;14.17;10.23;;;6.00;99.90;;;;;;4914799;29;20257;-83
2021/04/16 06:52:40;;;;;;;14.90;11.37;;;6.10;99.90;;;;;;4911905;29;20225;-84
2021/04/16 06:55:18;;;;;;;13.57;10.33;;;6.10;99.90;;;;;;4912368;29;20783;-83
2021/04/16 06:57:48;;;;;;;10.33;8.37;;;6.10;99.90;;;;;;4907994;29;20202;-82
2021/04/16 07:00:23;;;;;;;12.77;9.57;;;6.10;99.90;;;;;;4911454;29;20618;-84
2021/04/16 07:02:59;;;;;;;13.60;10.47;;;6.10;99.90;;;;;;4910937;29;20236;-85
2021/04/16 07:05:31;;;;;;;11.27;9.30;;;6.10;99.90;;;;;;4907870;29;20618;-83
2021/04/16 07:08:00;;;;;;;11.07;8.23;;;6.00;99.90;;;;;;4907653;28;20218;-83
2021/04/16 07:10:31;;;;;;;12.50;9.23;;;6.00;99.90;;;;;;4924649;29;20209;-86
2021/04/16 07:13:02;;;;;;;11.27;9.13;;;6.00;99.90;;;;;;4911523;28;20196;-85
2021/04/16 07:15:36;;;;;;;13.37;9.50;;;6.00;99.90;;;;;;4912168;28;20716;-84
2021/04/16 07:18:05;;;;;;;13.47;9.63;;;5.90;99.90;;;;;;4900919;29;20511;-83
2021/04/16 07:20:33;;;;;;;14.33;9.43;;;6.00;99.90;;;;;;4916803;28;20210;-84
2021/04/16 07:23:01;;;;;;;13.40;9.50;;;6.00;99.90;;;;;;4906524;28;20237;-82
2021/04/16 07:25:35;;;;;;;11.57;9.07;;;6.10;99.90;;;;;;4931252;28;20210;-83
2021/04/16 07:28:05;;;;;;;12.87;8.97;;;6.00;99.90;;;;;;4912784;28;20261;-81
2021/04/16 07:30:42;;;;;;;11.40;8.80;;;6.00;99.90;;;;;;4915814;28;20233;-80
2021/04/16 07:33:37;;;;;;;12.77;9.17;;;6.00;99.90;;;;;;4911814;29;20834;-84
2021/04/16 07:36:21;;;;;;;12.53;9.60;;;6.10;99.90;;;;;;4911552;29;20494;-82
2021/04/16 07:39:01;;;;;;;11.77;8.70;;;6.10;99.90;;;;;;4911938;29;20205;-84
2021/04/16 07:41:36;;;;;;;15.43;10.40;;;6.20;99.90;;;;;;4913403;28;21254;-84
2021/04/16 07:44:04;;;;;;;17.27;12.10;;;6.20;99.90;;;;;;4915264;28;20726;-83
2021/04/16 07:46:39;;;;;;;20.53;13.90;;;6.20;99.90;;;;;;4913237;28;20215;-82
2021/04/16 07:49:37;;;;;;;21.13;14.37;;;6.20;99.90;;;;;;4922040;28;20211;-83
2021/04/16 07:52:31;;;;;;;21.30;16.27;;;6.20;99.90;;;;;;4927608;29;20199;-84
2021/04/16 07:55:21;;;;;;;21.83;16.30;;;6.20;99.90;;;;;;4932309;28;20217;-82
2021/04/16 07:58:03;;;;;;;20.37;15.13;;;6.20;99.90;;;;;;4911329;29;20470;-84
2021/04/16 08:00:36;;;;;;;22.43;15.30;;;6.30;99.90;;;;;;4916714;28;20703;-81
2021/04/16 08:03:13;;;;;;;19.87;16.53;;;6.30;99.90;;;;;;4913748;28;20230;-82
2021/04/16 08:05:45;;;;;;;23.00;16.57;;;6.30;99.90;;;;;;4914858;28;20206;-82
2021/04/16 08:08:26;;;;;;;18.87;15.23;;;6.30;99.90;;;;;;4918653;28;20459;-81
2021/04/16 08:11:09;;;;;;;19.20;16.13;;;6.30;99.90;;;;;;4916366;28;20546;-83
2021/04/16 08:13:51;;;;;;;21.63;15.40;;;6.30;99.90;;;;;;4914912;28;20932;-83
2021/04/16 08:16:21;;;;;;;16.07;12.40;;;6.30;99.90;;;;;;4919925;28;20346;-83
2021/04/16 08:19:17;;;;;;;20.93;13.87;;;6.30;99.90;;;;;;4911145;28;20203;-83
2021/04/16 08:21:49;;;;;;;19.77;14.13;;;6.30;99.90;;;;;;4893217;29;20302;-83
2021/04/16 08:24:27;;;;;;;12.07;9.73;;;6.30;99.90;;;;;;4914650;28;21018;-84
2021/04/16 08:27:19;;;;;;;19.43;15.37;;;6.40;99.90;;;;;;4904504;29;20218;-82
2021/04/16 08:29:53;;;;;;;16.07;14.07;;;6.40;99.90;;;;;;4910576;29;20281;-83
2021/04/16 08:32:34;;;;;;;17.33;14.20;;;6.40;99.90;;;;;;4912385;29;20219;-85
2021/04/16 08:35:26;;;;;;;15.57;13.73;;;6.40;99.90;;;;;;4918622;28;20687;-83
2021/04/16 08:38:02;;;;;;;17.23;13.80;;;6.50;99.90;;;;;;4914811;28;20208;-82
2021/04/16 08:40:34;;;;;;;16.40;13.00;;;6.60;99.90;;;;;;4923387;28;20212;-81
2021/04/16 08:43:02;;;;;;;19.33;14.20;;;6.60;99.90;;;;;;4917613;28;20238;-84
2021/04/16 08:45:34;;;;;;;18.73;14.70;;;6.70;99.90;;;;;;4931539;28;20211;-83
2021/04/16 08:48:29;;;;;;;19.60;16.57;;;6.70;99.90;;;;;;4924442;28;20227;-84
2021/04/16 08:51:05;;;;;;;21.87;17.27;;;6.70;99.90;;;;;;4914090;29;20216;-82
2021/04/16 08:53:32;;;;;;;24.93;19.90;;;6.70;99.90;;;;;;4919506;29;20206;-83
2021/04/16 08:56:16;;;;;;;24.13;19.57;;;6.80;99.90;;;;;;4923089;28;20223;-84
2021/04/16 08:58:45;;;;;;;20.50;17.97;;;6.80;99.90;;;;;;4926327;28;20660;-83
2021/04/16 09:01:40;;;;;;;19.83;16.00;;;7.00;99.70;;;;;;4924494;28;20214;-83
2021/04/16 09:04:22;;;;;;;18.30;13.47;;;6.90;99.30;;;;;;4920083;28;20243;-82
2021/04/16 09:06:56;;;;;;;18.57;13.37;;;6.90;99.90;;;;;;4924417;28;20407;-84
2021/04/16 09:09:44;;;;;;;13.53;10.57;;;7.00;98.60;;;;;;4912335;29;21077;-82
2021/04/16 09:12:46;;;;;;;12.67;10.60;;;7.10;98.10;;;;;;4903960;28;20206;-82
2021/04/16 09:15:45;;;;;;;10.87;9.43;;;7.30;97.30;;;;;;4911948;29;20205;-83
2021/04/16 09:18:35;;;;;;;14.43;10.50;;;7.40;97.00;;;;;;4913251;28;20216;-84
2021/04/16 09:21:23;;;;;;;11.17;9.83;;;7.40;95.50;;;;;;4912060;29;20209;-84
2021/04/16 09:24:14;;;;;;;17.80;11.50;;;7.50;95.40;;;;;;4913461;29;20281;-84
2021/04/16 09:27:00;;;;;;;13.40;11.40;;;7.60;94.40;;;;;;4918010;28;20308;-83
2021/04/16 09:29:47;;;;;;;12.83;11.37;;;7.60;94.20;;;;;;4920525;28;20528;-84
2021/04/16 09:32:46;;;;;;;16.10;12.60;;;7.60;94.30;;;;;;4925016;28;20220;-83
2021/04/16 09:35:47;;;;;;;16.70;13.20;;;7.60;94.60;;;;;;4919010;28;20394;-84
2021/04/16 09:38:57;;;;;;;10.93;7.87;;;7.50;94.40;;;;;;4908244;28;20308;-82
2021/04/16 09:41:35;;;;;;;14.23;11.47;;;7.40;93.80;;;;;;4909878;28;20906;-84
2021/04/16 09:44:47;;;;;;;13.47;11.23;;;7.50;94.00;;;;;;4911443;28;20256;-83
2021/04/16 09:47:46;;;;;;;12.10;10.73;;;7.50;95.10;;;;;;4898587;28;20889;-83
2021/04/16 09:50:37;;;;;;;13.17;11.17;;;7.50;94.70;;;;;;4910082;29;20609;-83
2021/04/16 09:53:28;;;;;;;12.67;10.63;;;7.50;95.30;;;;;;4882067;29;20221;-83
2021/04/16 09:56:12;;;;;;;16.23;11.17;;;7.60;94.60;;;;;;4904021;28;20457;-82
2021/04/16 09:59:28;;;;;;;11.90;10.70;;;7.70;94.30;;;;;;4905213;29;20206;-83
2021/04/16 10:02:34;;;;;;;14.97;11.47;;;7.80;93.10;;;;;;4914487;29;20709;-82
2021/04/16 10:05:11;;;;;;;15.03;10.93;;;8.00;94.30;;;;;;4918907;28;20893;-80
2021/04/16 10:07:44;;;;;;;12.37;10.63;;;7.70;92.70;;;;;;4917220;28;20220;-83
2021/04/16 10:10:22;;;;;;;10.57;9.50;;;7.70;93.40;;;;;;4912151;29;20616;-82
2021/04/16 10:13:01;;;;;;;16.07;10.97;;;7.60;93.60;;;;;;4917541;29;20770;-82
2021/04/16 10:15:35;;;;;;;18.23;11.23;;;7.60;94.50;;;;;;4909999;28;20240;-83
2021/04/16 10:18:07;;;;;;;17.03;12.03;;;7.60;94.80;;;;;;4910479;29;20227;-83
2021/04/16 10:20:41;;;;;;;13.83;12.07;;;7.70;94.40;;;;;;4904883;28;20509;-84
2021/04/16 10:23:20;;;;;;;20.00;13.80;;;7.60;94.10;;;;;;4908976;29;20229;-84
2021/04/16 12:38:31;;;;;;;12.47;11.17;;;7.20;99.90;;;;;;4904831;28;20237;-83
2021/04/16 12:41:15;;;;;;;17.50;13.67;;;7.20;99.90;;;;;;4903957;28;20209;-84
2021/04/16 12:43:45;;;;;;;16.77;14.87;;;7.20;99.90;;;;;;4898155;28;20239;-85
2021/04/16 12:46:21;;;;;;;16.23;12.60;;;7.20;99.90;;;;;;4910835;29;20211;-84
2021/04/16 12:48:51;;;;;;;15.30;12.37;;;7.20;99.90;;;;;;4903883;29;20225;-84
2021/04/16 12:51:19;;;;;;;13.53;11.60;;;7.20;99.90;;;;;;4908671;28;20292;-83
2021/04/16 12:53:49;;;;;;;15.23;12.77;;;7.10;99.90;;;;;;4909159;29;20216;-84
2021/04/16 12:56:19;;;;;;;11.63;10.30;;;7.20;99.90;;;;;;4910354;28;20209;-82
2021/04/16 12:58:53;;;;;;;11.03;9.87;;;7.20;99.90;;;;;;4902553;29;20476;-85
2021/04/16 13:01:32;;;;;;;11.87;10.37;;;7.20;99.90;;;;;;4909811;29;20209;-83
2021/04/16 13:04:05;;;;;;;11.43;10.17;;;7.20;99.90;;;;;;4894708;29;20240;-81
2021/04/16 13:06:41;;;;;;;11.50;10.07;;;7.10;99.90;;;;;;4906696;28;20209;-83
2021/04/16 13:09:27;;;;;;;10.37;9.07;;;7.00;99.90;;;;;;4906343;28;20450;-81
2021/04/16 13:11:55;;;;;;;8.83;7.93;;;7.00;99.90;;;;;;4904770;29;20299;-81
2021/04/16 13:14:24;;;;;;;9.80;8.80;;;7.00;99.90;;;;;;4912938;28;20260;-84
2021/04/16 13:32:37;;;;;;;14.17;10.10;;;6.90;99.90;;;;;;4795806;29;20597;-83
2021/04/16 13:35:34;;;;;;;13.13;10.63;;;7.00;99.90;;;;;;4794707;29;20308;-81
2021/04/16 13:38:25;;;;;;;14.90;11.60;;;6.90;99.90;;;;;;4798497;29;20219;-81
2021/04/16 13:41:08;;;;;;;13.30;11.37;;;6.90;99.90;;;;;;4872434;29;20937;-82
2021/04/16 13:43:36;;;;;;;12.27;10.97;;;6.90;99.90;;;;;;4825756;29;20253;-83
2021/04/16 13:46:06;;;;;;;15.73;10.93;;;6.90;99.90;;;;;;4873298;29;20218;-81
2021/04/16 13:48:35;;;;;;;12.83;11.10;;;6.90;99.90;;;;;;4881523;29;20225;-82
2021/04/16 13:51:04;;;;;;;11.03;9.93;;;6.90;99.90;;;;;;4886396;29;20209;-84
2021/04/16 13:53:32;;;;;;;10.23;7.57;;;6.90;99.90;;;;;;4888059;29;20209;-82
2021/04/16 13:56:01;;;;;;;9.07;6.00;;;6.70;99.90;;;;;;4893904;29;20243;-83
2021/04/16 13:58:28;;;;;;;6.43;5.63;;;6.60;99.90;;;;;;4890627;29;20243;-81
2021/04/16 14:00:56;;;;;;;6.83;5.43;;;6.50;99.90;;;;;;4896571;29;20217;-81
2021/04/16 14:03:29;;;;;;;4.83;4.30;;;6.50;99.90;;;;;;4914804;29;20246;-83
2021/04/16 14:06:01;;;;;;;6.67;4.23;;;6.40;99.90;;;;;;4928845;28;20223;-82
2021/04/16 14:08:32;;;;;;;7.37;4.87;;;6.30;99.90;;;;;;4929307;28;20333;-83
2021/04/16 14:11:01;;;;;;;6.07;5.20;;;6.30;99.90;;;;;;4919331;29;20414;-81
2021/04/16 14:13:29;;;;;;;4.80;4.13;;;6.30;99.90;;;;;;4936598;29;20202;-83
2021/04/16 14:16:02;;;;;;;5.70;3.97;;;6.20;99.90;;;;;;4931669;29;20392;-82
2021/04/16 14:18:34;;;;;;;7.17;3.77;;;6.10;99.90;;;;;;4932429;29;20231;-82
2021/04/16 14:21:03;;;;;;;5.63;3.47;;;6.00;99.90;;;;;;4933651;28;20214;-83
2021/04/16 14:23:32;;;;;;;4.03;3.30;;;5.90;99.90;;;;;;4934598;28;20266;-83
2021/04/16 14:26:01;;;;;;;3.23;2.93;;;5.80;99.90;;;;;;4937045;28;21225;-82
2021/04/16 14:28:28;;;;;;;3.90;3.23;;;5.80;99.90;;;;;;4915789;29;20206;-82
2021/04/16 14:30:58;;;;;;;4.13;3.40;;;5.70;99.90;;;;;;4921578;28;20206;-81
2021/04/16 14:33:28;;;;;;;3.47;3.17;;;5.70;99.90;;;;;;4913599;29;20198;-81
2021/04/16 14:35:58;;;;;;;3.43;3.13;;;5.70;99.90;;;;;;4923266;29;20210;-84
2021/04/16 14:38:26;;;;;;;3.87;3.30;;;5.70;99.90;;;;;;4923480;29;20232;-84
2021/04/16 14:40:55;;;;;;;4.77;3.73;;;5.60;99.90;;;;;;4922998;29;20743;-82
2021/04/16 14:43:25;;;;;;;4.23;3.60;;;5.70;99.90;;;;;;4931994;29;20910;-83
2021/04/16 14:45:54;;;;;;;3.87;3.47;;;5.70;99.90;;;;;;4932211;29;20300;-83
2021/04/16 14:48:23;;;;;;;4.43;3.70;;;5.70;99.90;;;;;;4922652;29;20222;-85
2021/04/16 14:50:54;;;;;;;6.97;4.30;;;5.70;99.90;;;;;;4926751;28;20210;-84
2021/04/16 14:53:26;;;;;;;5.20;4.53;;;5.80;99.90;;;;;;4920786;29;20216;-82
2021/04/16 14:55:59;;;;;;;5.17;4.20;;;5.80;99.90;;;;;;4926071;29;20212;-82
2021/04/16 14:58:31;;;;;;;5.77;4.43;;;5.80;99.90;;;;;;4917470;29;20284;-85
2021/04/16 15:00:59;;;;;;;5.67;4.47;;;5.80;99.90;;;;;;4925976;29;20236;-82
2021/04/16 15:03:27;;;;;;;5.00;4.50;;;5.90;99.90;;;;;;4921024;29;20208;-81
2021/04/16 15:05:56;;;;;;;5.73;5.00;;;5.90;99.90;;;;;;4916454;29;20669;-81
2021/04/16 15:08:26;;;;;;;8.00;5.20;;;6.00;99.90;;;;;;4921468;29;20274;-84
2021/04/16 15:11:02;;;;;;;5.93;4.87;;;6.00;99.90;;;;;;4917101;29;20210;-82
2021/04/16 15:13:32;;;;;;;6.97;5.73;;;6.00;99.90;;;;;;4919353;29;20211;-83
2021/04/16 15:16:05;;;;;;;7.60;6.13;;;6.10;99.90;;;;;;4922094;29;20205;-82
2021/04/16 15:18:34;;;;;;;6.53;5.93;;;6.00;99.90;;;;;;4919748;29;20753;-81
2021/04/16 15:21:05;;;;;;;10.13;6.13;;;6.20;99.90;;;;;;4923334;28;20218;-84
2021/04/16 15:23:35;;;;;;;8.43;6.10;;;6.20;99.90;;;;;;4916249;29;20318;-83
2021/04/16 15:26:08;;;;;;;7.30;6.60;;;6.20;99.90;;;;;;4924491;29;20211;-84
2021/04/16 15:28:40;;;;;;;7.83;6.27;;;6.20;99.90;;;;;;4927727;29;20364;-82
2021/04/16 15:31:10;;;;;;;8.27;6.80;;;6.30;99.90;;;;;;4935259;28;20299;-80
2021/04/16 15:47:35;;;;;;;7.93;7.13;;;6.40;99.90;;;;;;4923037;29;20221;-83
2021/04/16 15:50:11;;;;;;;8.47;7.57;;;6.40;99.90;;;;;;4923726;29;20571;-83
2021/04/16 15:52:40;;;;;;;8.00;7.20;;;6.40;99.90;;;;;;4922052;29;20214;-82
2021/04/16 15:55:10;;;;;;;8.70;7.07;;;6.40;99.90;;;;;;4923657;29;20206;-84
2021/04/16 15:57:41;;;;;;;9.13;7.50;;;6.50;99.90;;;;;;4922984;29;20212;-84
2021/04/16 16:00:14;;;;;;;9.20;8.07;;;6.50;99.90;;;;;;4927467;28;20228;-83